Aviation Digital Data Service (ADDS)

Output produced by METARs form (1228 UTC 10 July 2020)
found at http://www.aviationweather.gov/metar/data/
 
KRNH 101215Z AUTO 30003KT 10SM CLR 18/17 A2996 RMK AO2 T01840165
KRNH 101155Z AUTO 27003KT 10SM CLR 17/17 A2996 RMK AO2 T01740165 10190 20156
KRNH 101135Z AUTO 00000KT 10SM CLR 17/16 A2995 RMK AO2 T01700163
KRNH 101120Z 1012/1112 29004KT P6SM SKC 
     FM101600 30012G20KT P6SM FEW050 SCT250 
     FM110100 30003KT P6SM SCT110
       
KMSP 101153Z 33004KT 10SM FEW250 20/17 A2995 RMK AO2 SLP139 T02000167 10222 20189 51012
KMSP 101120Z 1012/1118 32004KT P6SM FEW250 
     FM101500 30010G16KT P6SM FEW050 SCT250 
     FM110600 30006KT P6SM SCT060 BKN090